Latest Weather Observations for Luncheon Hill

IDT60801

Issued at 4:01 pm EDT Tuesday 19 January 2021 (issued every 10 minutes, with the page automatically refreshed every 10 minutes)

About weather observations | Map of weather stations | Latest weather observations for TAS | Other Formats
Station Details ID: 091259 Name: LUNCHEON HILL (FORESTRY) Lat: -41.15 Lon: 145.15 Height: 344.0 m
Data from the previous 72 hours. | See also: Recent months at Luncheon Hill
Date/Time
EDT
Temp
°C
App
Temp
°C
Dew
Point
°C
Rel
Hum
%
Delta-T
°C
Wind Press
QNH
hPa
Press
MSL
hPa
Rain since
9am
mm
Dir  Spd
km/h
Gust
km/h
Spd
kts
Gust
kts
19/04:00pm 15.6 8.6 4.0 46 5.5 S 30 46 16 25 - - 0.0
19/03:30pm 16.1 9.7 5.4 49 5.2 S 28 50 15 27 - - 0.0
19/03:04pm 15.7 9.0 3.5 44 5.7 S 28 50 15 27 - - 0.0
19/03:00pm 16.1 10.2 5.7 50 5.1 S 26 48 14 26 - - 0.0
19/02:30pm 15.1 8.4 3.9 47 5.2 S 28 52 15 28 - - 0.0
19/02:00pm 14.1 4.7 2.4 45 5.3 SSW 41 61 22 33 - - 0.0
19/01:30pm 14.3 6.2 3.5 48 5.0 SSW 35 61 19 33 - - 0.0
19/01:00pm 13.6 5.6 3.9 52 4.5 S 35 54 19 29 - - 0.0
19/12:42pm 14.1 6.4 3.6 49 4.8 S 33 56 18 30 - - 0.0
19/12:30pm 13.8 7.4 5.2 56 4.1 S 28 43 15 23 - - 0.0
19/12:00pm 12.9 6.1 5.1 59 3.7 S 30 44 16 24 - - 0.0
19/11:30am 13.0 6.5 4.9 58 3.8 S 28 46 15 25 - - 0.0
19/11:03am 11.3 4.5 2.9 56 3.7 SSW 28 46 15 25 - - 0.0
19/11:00am 11.4 5.0 3.4 58 3.6 SSW 26 43 14 23 - - 0.0
19/10:50am 11.0 4.1 2.8 57 3.6 SSW 28 50 15 27 - - 0.0
19/10:30am 11.8 5.9 3.8 58 3.6 SSW 24 43 13 23 - - 0.0
19/10:00am 12.0 4.1 2.2 51 4.3 S 33 59 18 32 - - 0.0
19/09:34am 10.4 3.7 3.7 63 3.0 S 28 46 15 25 - - 0.0
19/09:30am 10.7 4.9 4.6 66 2.8 S 24 43 13 23 - - 0.0
19/09:04am 9.5 3.0 4.7 72 2.2 SSW 28 50 15 27 - - 0.0
19/09:00am 9.4 4.1 5.0 74 2.0 SSW 22 35 12 19 - - 1.8
19/08:38am 10.2 3.7 4.6 68 2.6 SSW 28 46 15 25 - - 1.8
19/08:30am 9.5 3.4 4.7 72 2.2 S 26 44 14 24 - - 1.8
19/08:00am 8.2 1.9 3.7 73 2.0 S 26 41 14 22 - - 1.8
19/07:30am 7.9 1.6 3.6 74 1.9 S 26 41 14 22 - - 1.8
19/07:00am 7.6 0.8 2.9 72 2.0 S 28 39 15 21 - - 1.8
19/06:30am 7.1 0.6 2.6 73 1.9 SSW 26 41 14 22 - - 1.8
19/06:00am 6.9 0.8 2.6 74 1.8 SSW 24 39 13 21 - - 1.8
19/05:30am 6.9 0.4 2.6 74 1.8 S 26 41 14 22 - - 1.8
19/05:00am 7.0 0.9 2.9 75 1.7 S 24 44 13 24 - - 1.8
19/04:30am 7.3 1.6 2.8 73 1.9 S 22 37 12 20 - - 1.8
19/04:00am 7.0 0.5 2.5 73 1.9 S 26 39 14 21 - - 1.8
19/03:30am 6.9 1.6 3.0 76 1.7 S 20 43 11 23 - - 1.8
19/03:00am 7.0 1.8 2.7 74 1.8 S 19 33 10 18 - - 1.8
19/02:30am 7.0 1.3 2.7 74 1.8 S 22 35 12 19 - - 1.8
19/02:00am 7.5 0.3 3.0 73 1.9 S 30 46 16 25 - - 1.8
19/01:30am 7.5 0.8 3.7 77 1.7 S 28 50 15 27 - - 1.8
19/01:00am 7.7 -0.5 2.8 71 2.1 S 35 56 19 30 - - 1.8
19/12:30am 8.1 -1.0 3.9 75 1.9 SSW 41 72 22 39 - - 1.8
19/12:00am 8.4 -0.6 4.6 77 1.7 SSW 41 63 22 34 - - 1.8
 
Date/Time
EDT
Temp
°C
App
Temp
°C
Dew
Point
°C
Rel
Hum
%
Delta-T
°C
Wind Press
QNH
hPa
Press
MSL
hPa
Rain since
9am
mm
Dir  Spd
km/h
Gust
km/h
Spd
kts
Gust
kts
18/11:30pm 8.3 -0.7 4.7 78 1.6 SSW 41 59 22 32 - - 1.8
18/11:00pm 8.2 -1.8 4.4 77 1.7 SSW 46 67 25 36 - - 1.8
18/10:30pm 8.3 -0.7 4.5 77 1.7 SSW 41 76 22 41 - - 1.8
18/10:00pm 8.5 -1.1 3.4 70 2.2 SSW 43 67 23 36 - - 1.8
18/09:30pm 8.7 -0.6 5.1 78 1.6 SSW 43 74 23 40 - - 1.8
18/09:00pm 9.1 0.3 5.5 78 1.7 SSW 41 80 22 43 - - 1.8
18/08:30pm 10.1 1.1 6.6 79 1.7 SSW 43 78 23 42 - - 1.8
18/08:00pm 10.8 3.2 7.5 80 1.6 SSW 37 57 20 31 - - 1.8
18/07:30pm 11.5 2.2 7.4 76 2.0 SSW 46 85 25 46 - - 1.8
18/07:01pm 12.2 4.0 8.3 77 2.0 SSW 41 72 22 39 - - 1.8
18/07:00pm 12.1 4.3 8.4 78 1.9 SSW 39 56 21 30 - - 1.8
18/06:30pm 12.7 6.3 10.6 87 1.1 SSW 35 61 19 33 - - 1.8
18/06:00pm 11.8 5.5 11.2 96 0.3 SSW 35 59 19 32 - - 1.8
18/05:30pm 11.9 5.8 11.6 98 0.2 SSW 35 59 19 32 - - 1.8
18/05:00pm 12.0 6.5 11.8 99 0.1 SW 32 54 17 29 - - 1.6
18/04:30pm 12.1 7.0 11.9 99 0.1 SW 30 59 16 32 - - 1.6
18/04:00pm 12.3 6.7 12.1 99 0.1 SW 33 61 18 33 - - 1.4
18/03:30pm 11.7 6.1 11.5 99 0.1 SW 32 50 17 27 - - 1.4
18/03:00pm 11.7 5.9 11.4 98 0.2 SW 33 59 18 32 - - 1.2
18/02:30pm 12.9 7.6 12.6 98 0.2 SW 32 54 17 29 - - 1.0
18/02:00pm 12.8 7.3 12.5 98 0.2 SW 33 61 18 33 - - 1.0
18/01:30pm 12.5 7.1 12.2 98 0.2 SW 32 61 17 33 - - 1.0
18/01:03pm 12.2 7.2 11.1 93 0.6 SW 28 54 15 29 - - 0.8
18/01:00pm 12.4 8.2 11.1 92 0.7 SW 24 54 13 29 - - 0.8
18/12:30pm 12.4 7.6 11.5 94 0.5 SW 28 52 15 28 - - 0.8
18/12:04pm 12.2 7.1 12.0 99 0.1 SW 30 56 16 30 - - 0.8
18/12:00pm 12.1 7.8 11.9 99 0.1 SW 26 44 14 24 - - 0.8
18/11:43am 11.3 6.4 11.3 100 0.0 SW 28 52 15 28 - - 0.8
18/11:30am 11.9 7.6 11.9 100 0.0 SW 26 48 14 26 - - 0.8
18/11:05am 12.2 7.6 12.2 100 0.0 SW 28 59 15 32 - - 0.6
18/11:00am 11.4 7.3 11.4 100 0.0 SW 24 59 13 32 - - 0.6
18/10:30am 11.6 7.5 11.6 100 0.0 SW 24 44 13 24 - - 0.6
18/10:10am 11.2 6.3 11.2 100 0.0 SW 28 52 15 28 - - 0.6
18/10:00am 11.7 8.1 11.7 100 0.0 WSW 22 44 12 24 - - 0.6
18/09:30am 11.2 7.8 11.2 100 0.0 WSW 20 35 11 19 - - 0.4
18/09:00am 11.0 7.7 11.0 100 0.0 SW 19 33 10 18 - - 5.8
18/08:30am 11.1 7.9 11.1 100 0.0 SW 19 35 10 19 - - 5.4
18/08:00am 10.9 7.0 10.9 100 0.0 SW 22 37 12 20 - - 5.4
18/07:30am 10.6 7.2 10.6 100 0.0 WSW 19 30 10 16 - - 5.2
18/07:00am 10.3 7.2 10.3 100 0.0 SW 17 28 9 15 - - 5.2
18/06:30am 10.2 6.1 10.2 100 0.0 SW 22 41 12 22 - - 5.2
18/06:13am 10.5 5.4 10.5 100 0.0 SW 28 50 15 27 - - 5.2
18/06:00am 10.7 6.0 10.7 100 0.0 SW 26 54 14 29 - - 5.2
18/05:57am 10.7 5.6 10.7 100 0.0 SW 28 54 15 29 - - 5.2
18/05:30am 11.2 7.0 11.2 100 0.0 SW 24 35 13 19 - - 5.0
18/05:00am 11.3 7.5 11.3 100 0.0 SW 22 41 12 22 - - 5.0
18/04:30am 11.1 8.2 11.1 100 0.0 SW 17 26 9 14 - - 4.8
18/04:00am 10.8 7.5 10.8 100 0.0 SW 19 33 10 18 - - 4.6
18/03:30am 10.6 7.0 10.6 100 0.0 SW 20 32 11 17 - - 4.6
18/03:00am 10.6 7.0 10.6 100 0.0 SW 20 35 11 19 - - 4.4
18/02:30am 10.7 6.4 10.7 100 0.0 SW 24 48 13 26 - - 4.4
18/02:00am 10.8 7.5 10.8 100 0.0 SW 19 33 10 18 - - 4.2
18/01:30am 10.7 6.4 10.7 100 0.0 SW 24 41 13 22 - - 4.0
18/01:00am 10.9 6.6 10.9 100 0.0 SW 24 39 13 21 - - 4.0
18/12:30am 11.0 7.7 11.0 100 0.0 SW 19 32 10 17 - - 3.8
18/12:00am 10.9 6.6 10.9 100 0.0 SW 24 43 13 23 - - 3.6
 
Date/Time
EDT
Temp
°C
App
Temp
°C
Dew
Point
°C
Rel
Hum
%
Delta-T
°C
Wind Press
QNH
hPa
Press
MSL
hPa
Rain since
9am
mm
Dir  Spd
km/h
Gust
km/h
Spd
kts
Gust
kts
17/11:30pm 11.0 7.5 11.0 100 0.0 SW 20 33 11 18 - - 3.4
17/11:00pm 11.0 6.8 11.0 100 0.0 SW 24 39 13 21 - - 3.2
17/10:41pm 11.0 6.0 11.0 100 0.0 SW 28 50 15 27 - - 3.2
17/10:30pm 11.3 7.5 11.3 100 0.0 SW 22 41 12 22 - - 3.2
17/10:00pm 11.4 6.9 11.4 100 0.0 SW 26 41 14 22 - - 3.0
17/09:30pm 11.5 8.2 11.5 100 0.0 SW 20 37 11 20 - - 2.6
17/09:00pm 11.5 7.0 11.5 100 0.0 SW 26 48 14 26 - - 2.0
17/08:30pm 11.4 6.9 11.4 100 0.0 WSW 26 52 14 28 - - 1.6
17/08:00pm 11.4 6.5 11.4 100 0.0 SW 28 46 15 25 - - 1.4
17/07:54pm 11.4 6.5 11.4 100 0.0 SW 28 57 15 31 - - 1.4
17/07:30pm 11.3 6.8 11.3 100 0.0 WSW 26 43 14 23 - - 1.4
17/07:00pm 11.4 6.5 11.4 100 0.0 WSW 28 44 15 24 - - 1.0
17/06:31pm 11.5 6.7 11.5 100 0.0 SW 28 50 15 27 - - 1.0
17/06:30pm 11.5 7.0 11.3 99 0.1 SW 26 46 14 25 - - 1.0
17/06:00pm 11.6 7.5 11.4 99 0.1 SW 24 43 13 23 - - 0.8
17/05:30pm 11.4 6.8 11.1 98 0.2 WSW 26 44 14 24 - - 0.4
17/05:00pm 11.3 7.0 10.7 96 0.3 WSW 24 43 13 23 - - 0.2
17/04:30pm 11.4 5.4 10.0 91 0.7 WSW 32 50 17 27 - - 0.0
17/04:00pm 11.6 6.1 9.3 86 1.2 WSW 28 46 15 25 - - 0.0
17/03:44pm 11.4 5.9 9.1 86 1.2 WSW 28 59 15 32 - - 0.0
17/03:30pm 11.3 6.1 9.0 86 1.2 WSW 26 43 14 23 - - 0.0
17/03:00pm 11.3 4.8 8.3 82 1.5 WSW 32 56 17 30 - - 0.0
17/02:30pm 11.5 5.7 8.0 79 1.7 WSW 28 50 15 27 - - 0.0
17/02:00pm 11.1 5.4 8.3 83 1.4 WSW 28 46 15 25 - - 0.0
17/01:48pm 11.3 5.5 8.0 80 1.6 WSW 28 54 15 29 - - 0.0
17/01:30pm 11.4 6.8 8.3 81 1.6 WSW 22 39 12 21 - - 0.0
17/01:20pm 11.3 5.4 7.6 78 1.8 WSW 28 50 15 27 - - 0.0
17/01:00pm 11.6 6.4 7.1 74 2.2 WSW 24 39 13 21 - - 0.0
17/12:30pm 11.9 5.9 7.0 72 2.4 SW 28 52 15 28 - - 0.0
17/12:07pm 13.2 7.1 6.5 64 3.3 SW 28 46 15 25 - - 0.0
17/12:00pm 13.4 8.1 7.0 65 3.2 SW 24 44 13 24 - - 0.0
17/11:38am 13.5 7.6 7.5 67 3.0 WSW 28 48 15 26 - - 0.0
17/11:30am 12.5 7.2 7.0 69 2.7 WSW 24 44 13 24 - - 0.0
17/11:02am 11.7 5.4 5.8 67 2.8 SW 28 50 15 27 - - 0.0
17/11:00am 11.7 5.3 5.3 65 3.0 SW 28 44 15 24 - - 0.0
17/10:30am 11.1 5.7 6.5 73 2.2 WSW 24 46 13 25 - - 0.0
17/10:00am 11.0 6.2 5.7 70 2.5 SW 20 35 11 19 - - 0.0
17/09:30am 10.3 5.6 5.9 74 2.1 SW 20 41 11 22 - - 0.0
17/09:00am 10.1 5.2 5.1 71 2.3 SW 20 43 11 23 - - 1.6
17/08:30am 10.4 5.4 4.8 68 2.6 SW 20 35 11 19 - - 1.6
17/08:00am 9.3 4.2 4.1 70 2.3 SW 20 33 11 18 - - 1.6
17/07:30am 9.0 4.1 5.0 76 1.8 SW 20 33 11 18 - - 1.6
17/07:00am 8.8 4.5 5.2 78 1.6 SW 17 30 9 16 - - 1.6
17/06:30am 8.5 4.6 5.4 81 1.4 SW 15 28 8 15 - - 1.6
17/06:00am 8.2 3.4 5.8 85 1.1 SW 20 32 11 17 - - 1.6
17/05:30am 8.4 3.5 5.2 80 1.5 SSW 20 35 11 19 - - 1.6
17/05:00am 8.4 4.2 5.5 82 1.3 SW 17 24 9 13 - - 1.6
17/04:30am 8.4 3.6 5.7 83 1.2 SSW 20 33 11 18 - - 1.6
17/04:00am 8.3 3.8 5.9 85 1.1 SW 19 35 10 19 - - 1.6
17/03:30am 8.1 3.3 5.4 83 1.2 SW 20 33 11 18 - - 1.6
17/03:00am 8.2 3.4 4.4 77 1.7 SW 19 28 10 15 - - 1.6
17/02:30am 8.1 2.8 4.9 80 1.4 SSW 22 32 12 17 - - 1.6
17/02:00am 8.3 3.4 5.1 80 1.5 SSW 20 32 11 17 - - 1.6
17/01:30am 8.4 3.4 4.8 78 1.6 SSW 20 35 11 19 - - 1.6
17/01:00am 8.3 3.3 4.5 77 1.7 SSW 20 32 11 17 - - 1.6
17/12:30am 8.1 2.8 5.0 81 1.4 SSW 22 41 12 22 - - 1.6
17/12:00am 8.3 3.0 5.1 80 1.5 SSW 22 39 12 21 - - 1.6
 
Date/Time
EDT
Temp
°C
App
Temp
°C
Dew
Point
°C
Rel
Hum
%
Delta-T
°C
Wind Press
QNH
hPa
Press
MSL
hPa
Rain since
9am
mm
Dir  Spd
km/h
Gust
km/h
Spd
kts
Gust
kts
16/11:30pm 8.4 2.1 5.5 82 1.3 SSW 28 46 15 25 - - 1.6
16/11:00pm 8.7 1.9 5.3 79 1.6 SSW 30 50 16 27 - - 1.6
16/10:51pm 8.7 2.0 5.4 80 1.5 SSW 30 50 16 27 - - 1.6
16/10:30pm 8.7 2.3 5.4 80 1.5 SSW 28 41 15 22 - - 1.6
16/10:03pm 8.7 1.4 4.7 76 1.8 SSW 32 50 17 27 - - 1.6
16/10:00pm 8.7 1.2 4.7 76 1.8 SSW 33 50 18 27 - - 1.6
16/09:34pm 8.6 0.6 3.8 72 2.1 SSW 35 54 19 29 - - 1.6
16/09:30pm 8.6 0.2 3.6 71 2.2 SSW 37 54 20 29 - - 1.6
16/09:00pm 8.7 0.6 3.5 70 2.3 SSW 35 56 19 30 - - 1.6
16/08:30pm 9.3 2.1 5.1 75 1.9 SSW 32 52 17 28 - - 1.6
16/08:00pm 10.0 2.0 5.8 75 2.0 SSW 37 57 20 31 - - 1.6
16/07:30pm 10.8 3.8 6.0 72 2.3 SSW 32 46 17 25 - - 1.6
16/07:00pm 10.2 1.2 6.5 78 1.8 SSW 43 76 23 41 - - 1.6
16/06:30pm 10.4 1.3 5.8 73 2.2 SSW 43 67 23 36 - - 1.6
16/06:18pm 10.8 1.4 5.3 69 2.6 SSW 44 72 24 39 - - 1.6
16/06:00pm 11.0 4.1 6.4 73 2.2 SSW 32 50 17 27 - - 1.6
16/05:30pm 12.5 5.6 7.4 71 2.5 SSW 33 65 18 35 - - 1.6
16/05:00pm 11.3 2.5 7.4 77 1.9 SSW 43 67 23 36 - - 1.6
16/04:30pm 12.4 4.7 8.5 77 2.0 SSW 39 65 21 35 - - 1.6

Other formats

Comma delimited format used in spreadsheet applications
http://www.bom.gov.au/fwo/IDT60801/IDT60801.95956.axf

JavaScript Object Notation format (JSON) in row-major order
http://www.bom.gov.au/fwo/IDT60801/IDT60801.95956.json

Data quality

Most of these data are generated automatically and are frequently updated. Quality checks on data are not normally performed. It is possible for incorrect values to appear. Refer to information at About Latest Weather Observations and please check the disclaimer before using these data.